createdAt,value
2022-12-17T00:04:21.436Z,40.53
2022-12-17T00:09:45.752Z,37.73
2022-12-17T00:15:08.765Z,32.53
2022-12-17T00:20:30.461Z,41.73
2022-12-17T00:25:50.451Z,40.47
2022-12-17T00:31:11.416Z,35.70
2022-12-17T00:36:31.777Z,37.10
2022-12-17T00:41:51.692Z,37.63
2022-12-17T00:47:11.708Z,37.37
2022-12-17T00:52:31.953Z,35.20
2022-12-17T00:57:52.156Z,36.63
2022-12-17T01:03:12.584Z,36.13
2022-12-17T01:08:33.883Z,37.00
2022-12-17T01:13:54.376Z,40.37
2022-12-17T01:19:17.605Z,36.00
2022-12-17T01:24:37.519Z,38.67
2022-12-17T01:29:59.240Z,37.67
2022-12-17T01:35:19.141Z,39.47
2022-12-17T01:40:39.338Z,36.27
2022-12-17T01:46:02.160Z,44.50
2022-12-17T01:51:23.515Z,36.50
2022-12-17T01:56:43.976Z,38.07
2022-12-17T02:02:05.692Z,41.00
2022-12-17T02:07:48.295Z,41.17
2022-12-17T02:13:15.920Z,44.63
2022-12-17T02:18:40.360Z,35.90
2022-12-17T02:24:23.779Z,41.30
2022-12-17T02:29:46.969Z,41.87
2022-12-17T02:35:07.770Z,42.43
2022-12-17T02:40:30.153Z,40.13
2022-12-17T02:45:51.427Z,35.67
2022-12-17T02:51:12.275Z,40.23
2022-12-17T02:56:32.753Z,40.03
2022-12-17T03:01:53.067Z,41.30
2022-12-17T03:07:13.177Z,41.77
2022-12-17T03:12:35.313Z,46.10
2022-12-17T03:17:55.515Z,36.03
2022-12-17T03:23:23.468Z,43.87
2022-12-17T03:28:43.869Z,43.17
2022-12-17T03:34:04.751Z,42.10
2022-12-17T03:39:25.001Z,41.70
2022-12-17T03:44:44.969Z,42.60
2022-12-17T03:50:04.928Z,42.07
2022-12-17T03:55:25.616Z,40.47
2022-12-17T04:00:45.653Z,41.50
2022-12-17T04:06:05.514Z,41.03
2022-12-17T04:11:25.649Z,44.90
2022-12-17T04:16:45.688Z,40.33
2022-12-17T04:22:05.692Z,45.70
2022-12-17T04:27:25.882Z,43.77
2022-12-17T04:32:45.827Z,41.83
2022-12-17T04:38:06.203Z,40.63
2022-12-17T04:43:31.006Z,45.63
2022-12-17T04:48:51.035Z,42.27
2022-12-17T04:54:11.047Z,41.97
2022-12-17T04:59:30.855Z,42.87
2022-12-17T05:04:53.958Z,41.83
2022-12-17T05:10:14.225Z,42.93
2022-12-17T05:15:34.277Z,43.40
2022-12-17T05:20:54.813Z,46.40
2022-12-17T05:26:27.165Z,40.70
2022-12-17T05:31:47.363Z,45.63
2022-12-17T05:37:09.000Z,41.33
2022-12-17T05:42:28.747Z,45.40
2022-12-17T05:47:48.885Z,43.33
2022-12-17T05:53:08.939Z,45.60
2022-12-17T05:58:30.058Z,45.90
2022-12-17T06:03:50.137Z,49.07
2022-12-17T06:09:10.175Z,44.60
2022-12-17T06:14:44.253Z,43.90
2022-12-17T06:20:04.245Z,42.33
2022-12-17T06:25:24.712Z,48.47
2022-12-17T06:30:44.990Z,40.93
2022-12-17T06:36:04.806Z,45.27
2022-12-17T06:41:25.080Z,51.13
2022-12-17T06:46:45.029Z,41.63
2022-12-17T06:52:05.303Z,44.57
2022-12-17T06:57:25.114Z,45.97
2022-12-17T07:02:45.223Z,41.23
2022-12-17T07:08:06.063Z,51.30
2022-12-17T07:13:27.138Z,47.87
2022-12-17T07:18:47.376Z,47.27
2022-12-17T07:24:07.592Z,45.97
2022-12-17T07:29:27.388Z,39.87
2022-12-17T07:34:47.435Z,44.40
2022-12-17T07:40:07.615Z,41.17
2022-12-17T07:45:28.053Z,44.70
2022-12-17T07:50:47.887Z,42.03
2022-12-17T07:56:08.453Z,46.53
2022-12-17T08:01:28.870Z,46.60
2022-12-17T08:06:49.398Z,48.20
2022-12-17T08:12:23.048Z,44.43
2022-12-17T08:17:43.369Z,51.43
2022-12-17T08:23:04.271Z,45.93
2022-12-17T08:28:49.470Z,48.83
2022-12-17T08:34:07.825Z,51.27
2022-12-17T08:39:28.658Z,54.67
2022-12-17T08:44:48.539Z,64.10
2022-12-17T08:50:08.320Z,65.67
2022-12-17T08:55:28.781Z,66.30
2022-12-17T09:00:48.855Z,67.57
2022-12-17T09:06:11.112Z,67.60
2022-12-17T09:11:31.356Z,77.13
2022-12-17T09:16:52.013Z,72.53
2022-12-17T09:22:12.316Z,74.43
2022-12-17T09:27:32.927Z,70.10
2022-12-17T09:32:56.117Z,70.17
2022-12-17T09:38:16.694Z,73.67
2022-12-17T09:43:47.067Z,76.97
2022-12-17T09:49:20.841Z,68.73
2022-12-17T09:54:46.282Z,73.10
2022-12-17T10:00:06.632Z,72.47
2022-12-17T10:05:39.848Z,61.50
2022-12-17T10:11:03.479Z,49.47
2022-12-17T10:16:44.419Z,55.53
2022-12-17T10:22:04.631Z,45.00
2022-12-17T10:27:29.019Z,38.67
2022-12-17T10:32:49.005Z,41.93
2022-12-17T10:38:09.740Z,39.77
2022-12-17T10:43:50.964Z,41.37
2022-12-17T10:49:22.083Z,51.83
2022-12-17T10:54:49.355Z,55.73
2022-12-17T11:00:10.171Z,59.13
2022-12-17T11:05:45.854Z,59.30
2022-12-17T11:11:20.252Z,61.67
2022-12-17T11:16:44.389Z,60.23
2022-12-17T11:22:09.663Z,65.20
2022-12-17T11:27:35.931Z,61.60
2022-12-17T11:33:03.328Z,64.03
2022-12-17T11:38:32.945Z,68.43
2022-12-17T11:43:56.280Z,60.80
2022-12-17T11:49:51.189Z,63.60
2022-12-17T11:55:29.035Z,64.83
2022-12-17T12:01:14.320Z,72.73
2022-12-17T12:07:05.514Z,69.80
2022-12-17T12:12:44.605Z,66.87
2022-12-17T12:18:22.538Z,63.67
2022-12-17T12:24:08.562Z,57.70
2022-12-17T12:29:31.765Z,61.00
2022-12-17T12:34:55.172Z,58.17
2022-12-17T12:40:24.282Z,46.20
2022-12-17T12:45:50.230Z,49.13
2022-12-17T12:51:36.209Z,43.37
2022-12-17T12:56:56.169Z,42.37
2022-12-17T13:02:16.790Z,40.40
2022-12-17T13:07:22.660Z,41.07
2022-12-17T13:12:33.639Z,38.50
2022-12-17T13:17:41.078Z,40.27
2022-12-17T13:23:06.446Z,39.50
2022-12-17T13:28:28.264Z,36.57
2022-12-17T13:33:44.416Z,37.97
2022-12-17T13:39:10.864Z,36.63
2022-12-17T13:44:24.937Z,37.23
2022-12-17T13:49:28.514Z,30.10
2022-12-17T13:54:30.289Z,28.43
2022-12-17T13:59:31.979Z,30.37
2022-12-17T14:04:33.727Z,28.60
2022-12-17T14:09:39.057Z,28.20
2022-12-17T14:14:43.624Z,26.57
2022-12-17T14:19:45.556Z,24.87
2022-12-17T14:24:47.267Z,27.20
2022-12-17T14:29:48.856Z,24.77
2022-12-17T14:34:51.337Z,28.20
2022-12-17T14:40:05.643Z,25.03
2022-12-17T14:45:22.959Z,28.47
2022-12-17T14:50:27.995Z,25.03
2022-12-17T14:55:55.247Z,25.93
2022-12-17T15:01:06.255Z,24.33
2022-12-17T15:06:11.839Z,26.87
2022-12-17T15:11:18.353Z,26.10
2022-12-17T15:16:19.987Z,26.83
2022-12-17T15:21:21.975Z,25.77
2022-12-17T15:26:24.092Z,24.53
2022-12-17T15:31:29.461Z,22.47
2022-12-17T15:36:33.638Z,24.10
2022-12-17T15:41:53.810Z,26.03
2022-12-17T15:46:55.561Z,23.10
2022-12-17T15:51:57.207Z,20.03
2022-12-17T15:56:58.852Z,21.27
2022-12-17T16:02:00.598Z,24.23
2022-12-17T16:07:04.299Z,23.67
2022-12-17T16:12:06.186Z,24.13
2022-12-17T16:17:07.775Z,24.00
2022-12-17T16:22:09.477Z,23.53
2022-12-17T16:27:11.104Z,25.10
2022-12-17T16:32:12.767Z,23.00
2022-12-17T16:37:14.371Z,23.60
2022-12-17T16:42:16.000Z,26.80
2022-12-17T16:47:17.618Z,24.30
2022-12-17T16:52:19.191Z,26.63
2022-12-17T16:57:20.787Z,28.13
2022-12-17T17:02:22.594Z,27.90
2022-12-17T17:07:24.480Z,29.27
2022-12-17T17:12:26.946Z,26.93
2022-12-17T17:17:54.470Z,26.57
2022-12-17T17:22:50.080Z,24.93
2022-12-17T17:27:51.683Z,28.70
2022-12-17T17:32:53.296Z,26.03
2022-12-17T17:37:54.958Z,27.33
2022-12-17T17:42:56.560Z,31.23
2022-12-17T17:47:58.151Z,27.80
2022-12-17T17:52:59.758Z,30.43
2022-12-17T17:58:01.994Z,31.87
2022-12-17T18:03:03.801Z,29.63
2022-12-17T18:08:05.844Z,28.87
2022-12-17T18:13:26.575Z,27.87
2022-12-17T18:18:28.237Z,33.30
2022-12-17T18:23:29.888Z,24.30
2022-12-17T18:28:31.492Z,28.93
2022-12-17T18:33:33.445Z,27.97
2022-12-17T18:38:36.193Z,27.13
2022-12-17T18:43:39.692Z,25.37
2022-12-17T18:48:41.349Z,26.37
2022-12-17T18:53:42.945Z,27.30
2022-12-17T18:58:44.622Z,32.03
2022-12-17T19:03:46.318Z,28.33
2022-12-17T19:08:48.764Z,28.00
2022-12-17T19:13:50.920Z,30.33
2022-12-17T19:19:01.262Z,29.73
2022-12-17T19:24:05.964Z,27.53
2022-12-17T19:29:08.536Z,32.20
2022-12-17T19:34:12.701Z,28.07
2022-12-17T19:39:17.304Z,31.67
2022-12-17T19:44:20.911Z,26.13
2022-12-17T19:49:22.715Z,25.67
2022-12-17T19:54:24.310Z,27.47
2022-12-17T19:59:26.425Z,26.93
2022-12-17T20:04:28.208Z,29.77
2022-12-17T20:09:29.963Z,31.20
2022-12-17T20:14:32.546Z,29.60
2022-12-17T20:19:34.908Z,31.70
2022-12-17T20:24:39.464Z,34.10
2022-12-17T20:29:41.174Z,31.03
2022-12-17T20:34:42.768Z,28.63
2022-12-17T20:39:44.565Z,28.87
2022-12-17T20:44:51.550Z,23.90
2022-12-17T20:49:55.016Z,25.90
2022-12-17T20:54:56.646Z,27.83
2022-12-17T20:59:58.258Z,24.80
2022-12-17T21:05:00.407Z,25.13
2022-12-17T21:10:02.027Z,25.00
2022-12-17T21:15:03.998Z,26.50
2022-12-17T21:20:06.745Z,26.70
2022-12-17T21:25:11.785Z,23.20
2022-12-17T21:30:13.768Z,27.83
2022-12-17T21:35:17.775Z,23.57
2022-12-17T21:40:19.851Z,28.77
2022-12-17T21:45:21.477Z,25.00
2022-12-17T21:50:23.367Z,26.80
2022-12-17T21:55:25.617Z,26.27
2022-12-17T22:00:27.404Z,25.10
2022-12-17T22:05:29.315Z,28.00
2022-12-17T22:10:43.004Z,26.93
2022-12-17T22:15:52.825Z,27.33
2022-12-17T22:20:59.259Z,29.00
2022-12-17T22:26:00.895Z,26.97
2022-12-17T22:31:26.806Z,30.07
2022-12-17T22:39:51.485Z,27.70
2022-12-17T22:44:37.552Z,28.73
2022-12-17T22:47:32.744Z,29.50
2022-12-17T22:52:34.513Z,26.50
2022-12-17T22:57:38.526Z,26.07
2022-12-17T23:02:40.664Z,28.57
2022-12-17T23:07:42.382Z,24.17
2022-12-17T23:12:50.773Z,25.27
2022-12-17T23:17:54.406Z,28.70
2022-12-17T23:22:56.825Z,27.57
2022-12-17T23:27:58.791Z,27.20
2022-12-17T23:33:00.590Z,26.53
2022-12-17T23:38:02.436Z,24.90
2022-12-17T23:43:04.206Z,26.57
2022-12-17T23:48:07.840Z,27.33
2022-12-17T23:53:09.438Z,24.97
2022-12-17T23:58:11.057Z,30.67
